Time;durP1;ratioP1;P1;durP2;ratioP2;P2;SDS_P1;SDS_P2;PMS_P1;PMS_P2;Temp;Humidity;BMP_temperature;BMP_pressure;BME280_temperature;BME280_humidity;BME280_pressure;Samples;Min_cycle;Max_cycle;Signal;HPM_P1;HPM_P2
2023/06/04 00:02:09;;;;;;;;;1.00;0.00;;;;;15.82;52.47;102304.66;5047972;28;9094;-66
2023/06/04 00:04:36;;;;;;;;;1.00;1.00;;;;;15.83;52.73;102305.50;5048698;28;9155;-66
2023/06/04 00:07:03;;;;;;;;;0.67;0.67;;;;;15.81;53.01;102307.59;5048485;28;9046;-67
2023/06/04 00:09:29;;;;;;;;;0.67;0.00;;;;;15.82;52.33;102311.97;5048104;28;9192;-68
2023/06/04 00:11:56;;;;;;;;;0.00;0.00;;;;;15.77;52.41;102309.00;5028766;28;9063;-67
2023/06/04 00:14:23;;;;;;;;;2.00;0.00;;;;;15.79;51.99;102306.94;5038800;28;9090;-66
2023/06/04 00:16:49;;;;;;;;;1.00;1.00;;;;;15.71;50.89;102305.16;5046732;28;9169;-67
2023/06/04 00:19:16;;;;;;;;;0.67;0.67;;;;;15.58;50.08;102302.28;5042956;28;9219;-67
2023/06/04 00:21:43;;;;;;;;;1.00;1.00;;;;;15.51;50.72;102295.94;5039831;28;9932;-67
2023/06/04 00:24:12;;;;;;;;;0.67;0.67;;;;;15.54;50.45;102292.84;5044860;28;9223;-67
2023/06/04 00:26:40;;;;;;;;;0.67;0.67;;;;;15.61;50.40;102301.06;5040002;28;9066;-67
2023/06/04 00:29:06;;;;;;;;;1.00;1.00;;;;;15.59;50.78;102301.25;5048119;28;8990;-67
2023/06/04 00:31:33;;;;;;;;;0.33;0.33;;;;;15.57;50.42;102309.59;5009686;28;9214;-67
2023/06/04 00:33:59;;;;;;;;;1.00;1.00;;;;;15.55;50.09;102297.22;5044974;28;9070;-67
2023/06/04 00:36:26;;;;;;;;;0.00;0.00;;;;;15.50;50.30;102305.13;5028893;28;10065;-67
2023/06/04 00:38:52;;;;;;;;;0.00;0.00;;;;;15.52;50.33;102294.94;5027997;28;9078;-68
2023/06/04 00:41:19;;;;;;;;;1.00;0.00;;;;;15.58;50.21;102296.84;5044226;28;9179;-67
2023/06/04 00:43:55;;;;;;;;;1.00;1.00;;;;;15.63;49.82;102293.56;5028478;28;9139;-67
2023/06/04 00:46:26;;;;;;;;;0.00;0.00;;;;;15.54;49.19;102298.28;5044473;28;9117;-66
2023/06/04 00:48:53;;;;;;;;;0.00;0.00;;;;;15.49;49.13;102301.56;5042203;28;9274;-68
2023/06/04 00:51:21;;;;;;;;;0.67;0.67;;;;;15.53;50.32;102304.75;5031987;28;9148;-68
2023/06/04 00:53:49;;;;;;;;;0.33;0.33;;;;;15.63;50.50;102301.72;5041530;28;9912;-66
2023/06/04 00:56:16;;;;;;;;;0.00;0.00;;;;;15.61;50.15;102304.63;5043557;28;9222;-66
2023/06/04 00:58:45;;;;;;;;;1.00;0.00;;;;;15.61;50.05;102301.06;5046396;28;9209;-67
2023/06/04 01:01:26;;;;;;;;;0.67;0.67;;;;;15.53;49.87;102302.03;5042060;28;9260;-66
2023/06/04 01:03:56;;;;;;;;;2.33;0.00;;;;;15.50;49.04;102302.41;5029347;28;9288;-68
2023/06/04 01:06:38;;;;;;;;;1.00;1.00;;;;;15.40;49.42;102307.31;5024010;28;9296;-68
2023/06/04 01:09:05;;;;;;;;;0.00;0.00;;;;;15.34;49.68;102304.31;5049503;28;9413;-67
2023/06/04 01:11:38;;;;;;;;;1.00;1.00;;;;;15.34;49.56;102304.31;5042959;28;9374;-67
2023/06/04 01:14:09;;;;;;;;;0.00;0.00;;;;;15.38;49.48;102312.91;5035169;28;9203;-68
2023/06/04 01:17:01;;;;;;;;;1.00;1.00;;;;;15.39;49.27;102305.59;5031373;28;9080;-67
2023/06/04 01:20:02;;;;;;;;;0.00;0.00;;;;;15.36;48.73;102297.88;5048589;28;9196;-67
2023/06/04 01:22:33;;;;;;;;;0.00;0.00;;;;;15.37;49.07;102313.09;5033584;28;9185;-68
2023/06/04 01:25:03;;;;;;;;;1.00;1.00;;;;;15.37;49.01;102313.09;5041331;28;9169;-68
2023/06/04 01:27:32;;;;;;;;;0.00;0.00;;;;;15.34;49.28;102309.72;5043865;28;9348;-68
2023/06/04 01:30:00;;;;;;;;;0.00;0.00;;;;;15.31;48.85;102309.25;5052669;28;9220;-66
2023/06/04 01:32:27;;;;;;;;;0.00;0.00;;;;;15.29;48.81;102305.91;5048957;28;9228;-66
2023/06/04 01:34:54;;;;;;;;;1.00;1.00;;;;;15.27;49.00;102311.53;5048065;28;9176;-68
2023/06/04 01:37:21;;;;;;;;;1.00;1.00;;;;;15.28;49.19;102306.94;5046603;28;9296;-68
2023/06/04 01:39:48;;;;;;;;;1.00;0.00;;;;;15.19;48.28;102302.63;5043408;28;9439;-68
2023/06/04 01:42:14;;;;;;;;;0.00;0.00;;;;;15.14;49.07;102302.38;5032954;28;9320;-68
2023/06/04 01:44:41;;;;;;;;;0.00;0.00;;;;;15.14;49.12;102296.94;5051662;28;9170;-68
2023/06/04 01:47:07;;;;;;;;;1.00;0.00;;;;;15.11;50.13;102298.19;5051535;28;9222;-68
2023/06/04 01:49:34;;;;;;;;;2.00;0.33;;;;;15.14;49.78;102297.78;5051595;28;9317;-67
2023/06/04 01:52:00;;;;;;;;;0.00;0.00;;;;;15.14;50.00;102297.78;5051877;28;9287;-68
2023/06/04 01:54:29;;;;;;;;;0.67;0.00;;;;;15.05;49.67;102297.06;5038439;28;9231;-67
2023/06/04 01:56:56;;;;;;;;;0.00;0.00;;;;;15.04;49.97;102306.22;5014350;28;9242;-67
2023/06/04 01:59:22;;;;;;;;;0.00;0.00;;;;;15.11;49.98;102306.31;5037771;28;9229;-68
2023/06/04 02:01:49;;;;;;;;;0.33;0.33;;;;;15.06;49.57;102309.56;5033243;28;9324;-68
2023/06/04 02:04:15;;;;;;;;;0.67;0.33;;;;;15.05;49.66;102299.75;5052335;28;9285;-67
2023/06/04 02:06:42;;;;;;;;;1.00;1.00;;;;;15.12;49.96;102301.75;5033996;28;9322;-67
2023/06/04 02:09:09;;;;;;;;;0.00;0.00;;;;;15.11;49.14;102303.63;5032357;28;9434;-68
2023/06/04 02:11:35;;;;;;;;;0.00;0.00;;;;;15.04;48.94;102306.22;5037525;28;9443;-66
2023/06/04 02:14:02;;;;;;;;;1.33;0.33;;;;;15.01;50.13;102301.16;5030286;28;9388;-68
2023/06/04 02:16:29;;;;;;;;;0.00;0.00;;;;;14.99;49.41;102296.94;5027468;28;9245;-69
2023/06/04 02:18:56;;;;;;;;;3.00;0.00;;;;;15.00;50.04;102293.22;5050839;28;9223;-67
2023/06/04 02:21:22;;;;;;;;;0.00;0.00;;;;;15.07;49.36;102296.88;5043281;28;9339;-69
2023/06/04 02:23:49;;;;;;;;;0.00;0.00;;;;;15.06;49.85;102287.88;5038536;28;9177;-68
2023/06/04 02:26:15;;;;;;;;;0.00;0.00;;;;;15.06;49.52;102301.44;5050126;28;9310;-67
2023/06/04 02:28:42;;;;;;;;;0.00;0.00;;;;;15.01;49.41;102297.63;5033692;28;9428;-68
2023/06/04 02:31:08;;;;;;;;;1.25;0.00;;;;;15.00;49.87;102293.22;5030188;28;9239;-66
2023/06/04 02:33:35;;;;;;;;;0.33;0.33;;;;;14.99;49.94;102296.94;5025473;28;9435;-69
2023/06/04 02:36:01;;;;;;;;;0.00;0.00;;;;;14.93;50.26;102298.56;5013787;28;9361;-69
2023/06/04 02:38:28;;;;;;;;;0.00;0.00;;;;;14.93;51.24;102293.13;5031219;28;9371;-68
2023/06/04 02:40:55;;;;;;;;;0.67;0.67;;;;;14.97;51.49;102301.75;5052169;28;9240;-68
2023/06/04 02:43:21;;;;;;;;;0.00;0.00;;;;;15.02;51.48;102300.13;5025593;28;9209;-69
2023/06/04 02:45:48;;;;;;;;;0.00;0.00;;;;;15.02;51.42;102296.59;5047735;28;9291;-70
2023/06/04 02:48:15;;;;;;;;;0.33;0.33;;;;;14.95;50.82;102301.06;5033227;28;9157;-70
2023/06/04 02:50:42;;;;;;;;;0.33;0.33;;;;;14.89;51.56;102291.81;5048864;28;9220;-69
2023/06/04 02:53:09;;;;;;;;;1.00;1.00;;;;;14.82;50.81;102288.16;5032273;28;9251;-69
2023/06/04 02:55:36;;;;;;;;;1.00;1.00;;;;;14.75;51.54;102285.38;5032212;28;9281;-69
2023/06/04 02:58:02;;;;;;;;;0.00;0.00;;;;;14.81;51.67;102281.06;5050962;28;9281;-70
2023/06/04 03:00:28;;;;;;;;;0.00;0.00;;;;;14.77;52.01;102293.31;5026654;28;9268;-70
2023/06/04 03:03:01;;;;;;;;;0.00;0.00;;;;;14.71;52.84;102292.22;5022743;28;9248;-69
2023/06/04 03:05:30;;;;;;;;;0.00;0.00;;;;;14.71;53.59;102292.22;5044380;28;9200;-69
2023/06/04 03:07:58;;;;;;;;;1.00;1.00;;;;;14.67;54.05;102295.47;5033088;28;9292;-69
2023/06/04 03:10:25;;;;;;;;;2.67;1.00;;;;;14.65;54.87;102301.06;5029996;28;10144;-69
2023/06/04 03:12:52;;;;;;;;;0.00;0.00;;;;;14.69;55.09;102298.84;5040525;28;9243;-69
2023/06/04 03:15:19;;;;;;;;;1.00;1.00;;;;;14.69;55.21;102296.97;5031714;28;9275;-69
2023/06/04 03:17:46;;;;;;;;;1.00;1.00;;;;;14.63;54.85;102292.28;5048949;28;9379;-69
2023/06/04 03:20:13;;;;;;;;;1.00;1.00;;;;;14.66;54.87;102293.78;5051440;28;9197;-69
2023/06/04 03:22:39;;;;;;;;;3.33;0.67;;;;;14.66;54.82;102291.91;5030920;28;10165;-70
2023/06/04 03:25:06;;;;;;;;;1.00;1.00;;;;;14.65;55.31;102292.09;5035885;28;9270;-69
2023/06/04 03:27:33;;;;;;;;;0.67;0.67;;;;;14.68;55.73;102291.72;5025176;28;9327;-67
2023/06/04 03:30:01;;;;;;;;;0.00;0.00;;;;;14.70;56.47;102286.94;5049168;28;9323;-69
2023/06/04 03:32:35;;;;;;;;;1.00;1.00;;;;;14.74;57.15;102272.84;5019495;28;9299;-69
2023/06/04 03:35:03;;;;;;;;;2.00;2.00;;;;;14.77;57.52;102277.06;5031818;28;9366;-68
2023/06/04 03:37:32;;;;;;;;;2.00;2.00;;;;;14.70;58.04;102281.53;5027607;28;9464;-69
2023/06/04 03:39:59;;;;;;;;;2.00;2.00;;;;;14.66;58.50;102277.50;5032283;28;9425;-68
2023/06/04 03:42:26;;;;;;;;;2.00;2.00;;;;;14.62;58.77;102287.88;5041809;28;9381;-67
2023/06/04 03:44:53;;;;;;;;;2.00;2.00;;;;;14.58;59.24;102292.84;5046656;28;9371;-67
2023/06/04 03:47:20;;;;;;;;;1.33;1.33;;;;;14.57;59.67;102293.03;5038472;28;9408;-67
2023/06/04 03:49:47;;;;;;;;;1.00;1.00;;;;;14.57;59.69;102293.84;5042722;28;9303;-69
2023/06/04 03:52:14;;;;;;;;;1.00;1.00;;;;;14.53;59.80;102289.00;5032255;28;9386;-69
2023/06/04 03:54:41;;;;;;;;;1.00;1.00;;;;;14.44;60.42;102281.94;5030903;28;9411;-69
2023/06/04 03:57:07;;;;;;;;;1.67;1.67;;;;;14.40;60.79;102280.63;5003228;28;9373;-69
2023/06/04 03:59:35;;;;;;;;;2.00;1.00;;;;;14.38;61.11;102279.97;5017555;28;9321;-68
2023/06/04 04:02:01;;;;;;;;;1.67;0.00;;;;;14.43;60.84;102291.13;5030785;28;9933;-68
2023/06/04 04:04:28;;;;;;;;;1.00;1.00;;;;;14.41;60.81;102288.56;5049165;28;10308;-69
2023/06/04 04:06:55;;;;;;;;;1.67;1.67;;;;;14.43;60.95;102296.53;5041102;28;9381;-68
2023/06/04 04:09:22;;;;;;;;;1.00;1.00;;;;;14.44;60.95;102290.09;5032441;28;9297;-69
2023/06/04 04:11:49;;;;;;;;;1.67;1.67;;;;;14.47;61.33;102295.13;5017396;28;9269;-68
2023/06/04 04:14:15;;;;;;;;;3.00;3.00;;;;;14.51;60.43;102285.66;5041143;28;9452;-67
2023/06/04 04:16:42;;;;;;;;;1.25;1.25;;;;;14.47;60.92;102284.31;5027687;28;9506;-69
2023/06/04 04:19:08;;;;;;;;;2.33;1.00;;;;;14.45;61.41;102292.59;5049364;28;9467;-69
2023/06/04 04:21:37;;;;;;;;;5.50;2.00;;;;;14.47;61.54;102292.44;5032355;28;9420;-69
2023/06/04 04:24:05;;;;;;;;;1.00;1.00;;;;;14.44;61.01;102288.22;5042366;28;9479;-69
2023/06/04 04:26:32;;;;;;;;;4.00;2.67;;;;;14.41;61.04;102291.28;5024680;28;9347;-69
2023/06/04 04:28:59;;;;;;;;;2.00;2.00;;;;;14.39;61.18;102295.22;5020552;28;9401;-70
2023/06/04 04:31:30;;;;;;;;;1.33;1.33;;;;;14.40;61.75;102296.91;5029123;28;9399;-70
2023/06/04 04:33:57;;;;;;;;;1.00;1.00;;;;;14.38;62.02;102298.94;5042646;28;9310;-69
2023/06/04 04:36:23;;;;;;;;;2.50;2.50;;;;;14.37;62.06;102289.97;5025505;28;10184;-69
2023/06/04 04:38:54;;;;;;;;;2.00;2.00;;;;;14.40;62.45;102303.16;5028766;28;9374;-69
2023/06/04 04:41:23;;;;;;;;;3.00;3.00;;;;;14.43;62.04;102296.53;5014802;28;10057;-69
2023/06/04 04:43:53;;;;;;;;;2.00;2.00;;;;;14.39;62.26;102296.06;5031175;28;9602;-69
2023/06/04 04:46:27;;;;;;;;;2.00;2.00;;;;;14.45;62.08;102294.47;5016874;28;9607;-70
2023/06/04 04:48:53;;;;;;;;;2.00;2.00;;;;;14.48;62.44;102296.81;5012224;28;9544;-69
2023/06/04 04:51:20;;;;;;;;;3.00;2.00;;;;;14.51;62.80;102293.78;5015141;28;10244;-66
2023/06/04 04:53:51;;;;;;;;;2.00;2.00;;;;;14.52;63.23;102295.44;5026110;28;10174;-68
2023/06/04 04:56:18;;;;;;;;;1.75;1.75;;;;;14.53;63.18;102294.41;5041795;28;9513;-66
2023/06/04 04:58:48;;;;;;;;;3.25;2.00;;;;;14.48;62.98;102300.38;5013617;28;10264;-68
2023/06/04 05:01:16;;;;;;;;;2.00;2.00;;;;;14.49;63.11;102301.22;5038858;28;9771;-68
2023/06/04 05:03:43;;;;;;;;;3.00;1.50;;;;;14.45;62.73;102295.31;5047279;28;10161;-68
2023/06/04 05:06:12;;;;;;;;;1.75;1.75;;;;;14.46;63.04;102301.56;5043120;28;9510;-68
2023/06/04 05:08:39;;;;;;;;;1.00;1.00;;;;;14.51;62.73;102304.63;5027986;28;9560;-69
2023/06/04 05:11:06;;;;;;;;;1.00;1.00;;;;;14.57;62.63;102307.41;5022791;28;9571;-68
2023/06/04 05:13:33;;;;;;;;;2.00;2.00;;;;;14.62;62.77;102304.13;5027286;28;9387;-68
2023/06/04 05:16:11;;;;;;;;;2.00;2.00;;;;;14.72;62.86;102309.31;5030219;28;9441;-66
2023/06/04 05:18:44;;;;;;;;;1.00;1.00;;;;;14.79;63.15;102307.53;5031108;28;9378;-67
2023/06/04 05:21:14;;;;;;;;;2.75;2.25;;;;;14.75;63.35;102303.53;5026719;28;9478;-66
2023/06/04 05:23:48;;;;;;;;;3.00;2.75;;;;;14.73;63.94;102310.97;5027024;28;9573;-69
2023/06/04 05:26:16;;;;;;;;;3.00;2.00;;;;;14.73;64.19;102298.28;5027410;28;9390;-68
2023/06/04 05:28:43;;;;;;;;;2.25;2.25;;;;;14.83;63.97;102298.00;5029112;28;9618;-69
2023/06/04 05:31:13;;;;;;;;;2.67;2.67;;;;;14.91;63.64;102297.03;5020335;28;9479;-67
2023/06/04 05:33:39;;;;;;;;;2.00;2.00;;;;;15.03;63.49;102301.00;5046126;28;9389;-67
2023/06/04 05:36:12;;;;;;;;;3.00;3.00;;;;;15.19;63.51;102303.50;5031015;28;9232;-67
2023/06/04 05:38:45;;;;;;;;;2.00;2.00;;;;;15.41;62.88;102301.69;5030966;28;9236;-67
2023/06/04 05:41:14;;;;;;;;;2.00;2.00;;;;;15.55;61.89;102305.38;5023143;28;9933;-68
2023/06/04 05:43:44;;;;;;;;;3.00;3.00;;;;;15.51;61.93;102298.66;5030319;28;9285;-67
2023/06/04 05:46:13;;;;;;;;;3.00;3.00;;;;;15.54;61.83;102301.81;5020426;28;9239;-67
2023/06/04 05:48:41;;;;;;;;;1.67;1.67;;;;;15.61;61.75;102299.19;5031305;28;9285;-67
2023/06/04 05:51:07;;;;;;;;;2.67;2.00;;;;;15.72;61.68;102300.63;5031566;28;9140;-67
2023/06/04 05:53:36;;;;;;;;;5.67;3.00;;;;;15.87;61.75;102311.41;5048461;28;9936;-67
2023/06/04 05:56:03;;;;;;;;;2.67;2.67;;;;;15.87;60.74;102320.38;5036708;28;9099;-66
2023/06/04 05:58:34;;;;;;;;;3.00;2.00;;;;;15.73;61.46;102319.41;5052072;28;9153;-68
2023/06/04 06:01:01;;;;;;;;;1.33;1.33;;;;;15.73;61.47;102319.41;5034519;28;9181;-66
2023/06/04 06:03:28;;;;;;;;;1.00;1.00;;;;;15.75;61.73;102316.50;5031136;28;8992;-68
2023/06/04 06:05:58;;;;;;;;;3.00;3.00;;;;;15.69;61.46;102326.25;5033835;28;10000;-67
2023/06/04 06:08:25;;;;;;;;;1.67;1.67;;;;;15.53;61.03;102319.16;5018729;28;9241;-67
2023/06/04 06:10:51;;;;;;;;;1.00;1.00;;;;;15.45;61.24;102330.13;5033786;28;9236;-66
2023/06/04 06:13:18;;;;;;;;;2.33;2.00;;;;;15.41;60.63;102326.09;5034453;28;9168;-67
2023/06/04 06:15:48;;;;;;;;;2.33;2.33;;;;;15.38;61.33;102326.47;5047869;28;9385;-68
2023/06/04 06:18:15;;;;;;;;;2.00;2.00;;;;;15.41;60.33;102320.69;5028019;28;9300;-68
2023/06/04 06:20:42;;;;;;;;;2.33;2.33;;;;;15.44;59.94;102324.91;5052189;28;9228;-67
2023/06/04 06:23:09;;;;;;;;;2.00;2.00;;;;;15.36;60.16;102327.72;5015477;28;9431;-67
2023/06/04 06:25:40;;;;;;;;;2.33;2.00;;;;;15.30;60.40;102327.41;5027829;28;9228;-68
2023/06/04 06:28:12;;;;;;;;;1.33;1.00;;;;;15.30;60.01;102326.59;5028178;28;9382;-67
2023/06/04 06:30:39;;;;;;;;;3.00;2.00;;;;;15.25;59.20;102326.31;5024459;28;9222;-67
2023/06/04 06:33:06;;;;;;;;;2.00;2.00;;;;;15.31;58.86;102328.25;5037238;28;9233;-66
2023/06/04 06:35:33;;;;;;;;;1.00;1.00;;;;;15.39;59.53;102324.59;5049687;28;9251;-67
2023/06/04 06:37:59;;;;;;;;;1.00;1.00;;;;;15.49;59.50;102326.00;5045727;28;9063;-68
2023/06/04 06:40:26;;;;;;;;;1.67;1.67;;;;;15.49;59.06;102326.00;5030339;28;9182;-68
2023/06/04 06:42:52;;;;;;;;;1.67;1.67;;;;;15.47;58.21;102327.19;5042386;28;9166;-67
2023/06/04 06:45:19;;;;;;;;;2.00;1.00;;;;;15.40;59.28;102329.03;5047722;28;9068;-67
2023/06/04 06:47:45;;;;;;;;;1.00;1.00;;;;;15.37;58.98;102327.50;5026786;28;9152;-67
2023/06/04 06:50:12;;;;;;;;;1.33;1.33;;;;;15.36;60.15;102330.44;5045598;28;9207;-67
2023/06/04 06:52:38;;;;;;;;;1.67;1.67;;;;;15.40;60.67;102334.44;5032677;28;9161;-67
2023/06/04 06:55:05;;;;;;;;;2.00;2.00;;;;;15.49;60.89;102338.72;5044790;28;9144;-67
2023/06/04 06:57:33;;;;;;;;;2.33;2.33;;;;;15.56;61.77;102339.66;5025498;28;9157;-69
2023/06/04 06:59:59;;;;;;;;;1.67;1.67;;;;;15.65;62.28;102345.84;5044901;28;9232;-68
2023/06/04 07:02:26;;;;;;;;;0.00;0.00;;;;;15.67;62.64;102339.16;5044296;28;9891;-68
2023/06/04 07:04:53;;;;;;;;;2.67;2.00;;;;;15.66;62.38;102342.09;5036366;28;9161;-67
2023/06/04 07:07:19;;;;;;;;;2.00;2.00;;;;;15.61;62.42;102356.19;5036544;28;9347;-68
2023/06/04 07:09:46;;;;;;;;;3.33;2.33;;;;;15.54;63.11;102353.41;5047759;28;9166;-68
2023/06/04 07:12:12;;;;;;;;;2.00;2.00;;;;;15.58;63.87;102345.72;5029645;28;9046;-68
2023/06/04 07:14:39;;;;;;;;;2.67;1.00;;;;;15.68;63.70;102356.31;5043242;28;9305;-68
2023/06/04 07:17:05;;;;;;;;;2.00;2.00;;;;;15.67;63.40;102355.44;5041136;28;9156;-67
2023/06/04 07:19:32;;;;;;;;;3.00;2.00;;;;;15.66;63.48;102355.66;5050951;28;9066;-68
2023/06/04 07:21:58;;;;;;;;;2.33;2.33;;;;;15.64;63.68;102347.69;5031011;28;9227;-68
2023/06/04 07:24:25;;;;;;;;;1.33;1.33;;;;;15.71;63.25;102356.75;5046944;28;9301;-68
2023/06/04 07:26:52;;;;;;;;;4.00;4.00;;;;;15.73;63.41;102352.00;5028296;28;9204;-68
2023/06/04 07:29:18;;;;;;;;;3.00;3.00;;;;;15.74;64.17;102359.09;5045739;28;9282;-68
2023/06/04 07:31:45;;;;;;;;;2.67;2.00;;;;;15.70;64.24;102346.94;5032094;28;9064;-67
2023/06/04 07:34:11;;;;;;;;;2.67;2.67;;;;;15.73;64.00;102357.41;5045386;28;9226;-68
2023/06/04 07:36:38;;;;;;;;;3.00;2.00;;;;;15.78;64.05;102352.25;5029281;28;9692;-67
2023/06/04 07:39:04;;;;;;;;;5.00;5.00;;;;;15.80;63.54;102365.66;5047459;28;9244;-68
2023/06/04 07:41:31;;;;;;;;;3.00;3.00;;;;;15.77;63.89;102364.16;5038865;28;9303;-68
2023/06/04 07:43:57;;;;;;;;;3.00;3.00;;;;;15.81;63.42;102365.44;5043085;28;9150;-68
2023/06/04 07:46:24;;;;;;;;;4.33;3.67;;;;;15.86;63.43;102359.44;5040789;28;9864;-68
2023/06/04 07:48:51;;;;;;;;;1.67;1.67;;;;;15.82;62.91;102369.84;5040294;28;9225;-68
2023/06/04 07:51:19;;;;;;;;;6.67;3.00;;;;;15.78;63.21;102363.09;5047867;28;9151;-69
2023/06/04 07:53:46;;;;;;;;;3.00;2.67;;;;;15.76;63.59;102364.34;5030317;28;9248;-68
2023/06/04 07:56:12;;;;;;;;;2.00;2.00;;;;;15.69;63.37;102356.13;5047307;28;9099;-68
2023/06/04 07:58:40;;;;;;;;;2.00;2.00;;;;;15.73;62.70;102353.88;5050564;28;9065;-68
2023/06/04 08:01:07;;;;;;;;;5.00;3.67;;;;;15.64;61.85;102361.25;5050694;28;9039;-68
2023/06/04 08:03:33;;;;;;;;;2.00;2.00;;;;;15.70;62.87;102365.09;5049806;28;8983;-68
2023/06/04 08:06:01;;;;;;;;;2.67;2.67;;;;;15.71;62.93;102358.63;5049713;28;9156;-67
2023/06/04 08:08:30;;;;;;;;;2.00;2.00;;;;;15.81;62.90;102367.31;5050250;28;9018;-69
2023/06/04 08:10:57;;;;;;;;;2.33;2.33;;;;;15.86;62.70;102366.75;5036650;28;9090;-69
2023/06/04 08:13:24;;;;;;;;;4.00;4.00;;;;;15.90;63.02;102362.63;5045533;28;9225;-68
2023/06/04 08:15:51;;;;;;;;;5.67;2.67;;;;;15.95;62.57;102362.88;5030903;28;9237;-68
2023/06/04 08:18:17;;;;;;;;;2.67;2.67;;;;;15.92;61.57;102369.53;5050015;28;9063;-68
2023/06/04 08:20:44;;;;;;;;;2.00;2.00;;;;;15.92;61.88;102379.53;5050143;28;9056;-69
2023/06/04 08:23:10;;;;;;;;;3.00;3.00;;;;;15.95;62.26;102365.59;5050295;28;9003;-69
2023/06/04 08:25:37;;;;;;;;;3.67;3.00;;;;;15.98;61.76;102374.19;5046984;28;9003;-68
2023/06/04 08:28:03;;;;;;;;;3.00;3.00;;;;;15.90;62.13;102377.03;5047339;28;8987;-68
2023/06/04 08:30:30;;;;;;;;;2.00;2.00;;;;;15.90;62.26;102376.19;5044133;28;9012;-68
2023/06/04 08:32:56;;;;;;;;;3.67;3.00;;;;;15.92;61.89;102380.41;5048686;28;9059;-67
2023/06/04 08:35:23;;;;;;;;;3.00;3.00;;;;;15.88;60.79;102368.25;5019719;28;9001;-68
2023/06/04 08:37:49;;;;;;;;;4.67;4.67;;;;;15.82;62.70;102372.56;5044456;28;9698;-67
2023/06/04 08:40:16;;;;;;;;;7.33;6.00;;;;;15.87;62.79;102376.56;5049189;28;9176;-67
2023/06/04 08:42:47;;;;;;;;;4.00;2.67;;;;;15.95;62.99;102376.44;5045883;28;9861;-69
2023/06/04 08:45:20;;;;;;;;;3.00;3.00;;;;;16.06;62.82;102371.34;5030497;28;9280;-69
2023/06/04 08:47:53;;;;;;;;;3.00;2.67;;;;;16.19;62.52;102377.94;5047555;28;9092;-68
2023/06/04 08:50:22;;;;;;;;;4.33;4.33;;;;;16.23;62.07;102376.53;5047846;28;9056;-69
2023/06/04 08:52:56;;;;;;;;;9.00;5.00;;;;;16.28;61.94;102376.78;5045706;28;9243;-69
2023/06/04 08:55:23;;;;;;;;;3.67;3.00;;;;;16.27;61.84;102370.50;5040712;28;9079;-68
2023/06/04 08:57:51;;;;;;;;;5.33;5.33;;;;;16.29;62.07;102379.31;5035666;28;9229;-68
2023/06/04 09:00:18;;;;;;;;;3.00;3.00;;;;;16.30;61.76;102383.72;5038509;28;9156;-68
2023/06/04 09:02:46;;;;;;;;;2.67;2.67;;;;;16.28;62.90;102376.78;5048794;28;9277;-68
2023/06/04 09:05:21;;;;;;;;;3.33;3.33;;;;;16.39;62.82;102376.25;5030771;28;8998;-68
2023/06/04 09:07:51;;;;;;;;;5.67;5.67;;;;;16.49;63.03;102384.09;5049232;28;9858;-67
2023/06/04 09:10:21;;;;;;;;;3.00;3.00;;;;;16.55;61.93;102391.47;5045515;28;9289;-67
2023/06/04 09:12:51;;;;;;;;;5.33;5.33;;;;;16.61;62.08;102396.13;5049816;28;8973;-68
2023/06/04 09:15:17;;;;;;;;;5.00;5.00;;;;;16.65;61.75;102389.25;5031644;28;9262;-68
2023/06/04 09:17:44;;;;;;;;;3.67;3.67;;;;;16.64;61.71;102384.84;5046532;28;8919;-68
2023/06/04 09:20:21;;;;;;;;;6.33;5.33;;;;;16.65;62.31;102381.09;5025814;28;9034;-67
2023/06/04 09:22:48;;;;;;;;;5.67;5.67;;;;;16.67;61.15;102376.28;5031638;28;9913;-68
2023/06/04 09:25:25;;;;;;;;;6.33;4.33;;;;;16.70;61.65;102380.50;5044039;28;9161;-67
2023/06/04 09:27:52;;;;;;;;;5.00;3.00;;;;;16.82;62.09;102387.13;5046409;28;9033;-69
2023/06/04 09:30:19;;;;;;;;;5.00;5.00;;;;;16.89;61.77;102381.72;5047334;28;8995;-67
2023/06/04 09:32:45;;;;;;;;;6.00;6.00;;;;;16.93;61.10;102374.81;5051166;28;9052;-66
2023/06/04 09:35:17;;;;;;;;;4.33;3.67;;;;;16.96;60.60;102379.88;5034963;28;9235;-67
2023/06/04 09:37:56;;;;;;;;;2.00;2.00;;;;;16.96;60.23;102375.28;5052026;28;9103;-67
2023/06/04 09:40:35;;;;;;;;;4.00;2.33;;;;;17.10;60.43;102387.09;5034850;28;9057;-66
2023/06/04 09:43:02;;;;;;;;;2.00;2.00;;;;;17.13;59.90;102383.97;5048944;28;8928;-66
2023/06/04 09:45:31;;;;;;;;;5.00;3.00;;;;;17.15;60.20;102386.50;5042641;28;9006;-66
2023/06/04 09:47:59;;;;;;;;;5.33;3.67;;;;;17.15;59.60;102391.94;5017162;28;9060;-67
2023/06/04 09:50:27;;;;;;;;;2.00;2.00;;;;;17.18;59.74;102389.66;5050949;28;9077;-67
2023/06/04 09:52:54;;;;;;;;;3.00;3.00;;;;;17.25;59.56;102390.53;5030850;28;9144;-67
2023/06/04 09:55:22;;;;;;;;;4.00;3.00;;;;;17.30;58.90;102387.22;5048928;28;9064;-68
2023/06/04 09:57:50;;;;;;;;;3.00;3.00;;;;;17.35;57.94;102389.34;5046199;28;9081;-68
2023/06/04 10:00:19;;;;;;;;;2.67;2.67;;;;;17.36;57.82;102385.56;5052839;28;9161;-69
2023/06/04 10:02:47;;;;;;;;;3.00;2.00;;;;;17.41;58.27;102388.50;5047659;28;8994;-68
2023/06/04 10:05:15;;;;;;;;;2.00;2.00;;;;;17.46;57.67;102392.31;5050024;28;8813;-69
2023/06/04 10:07:44;;;;;;;;;4.00;2.00;;;;;17.51;56.50;102392.56;5035310;28;8989;-69
2023/06/04 10:10:16;;;;;;;;;3.67;3.67;;;;;17.44;55.50;102391.69;5048934;28;8901;-69
2023/06/04 10:12:45;;;;;;;;;5.00;3.00;;;;;17.49;55.43;102400.06;5048812;28;9090;-68
2023/06/04 10:15:13;;;;;;;;;2.00;2.00;;;;;17.40;56.36;102390.41;5051485;28;9029;-68
2023/06/04 10:17:40;;;;;;;;;1.33;1.33;;;;;17.38;56.48;102392.50;5048191;28;9034;-69
2023/06/04 10:20:08;;;;;;;;;2.00;2.00;;;;;17.44;55.95;102393.56;5051183;28;8922;-69
2023/06/04 10:22:36;;;;;;;;;3.67;3.67;;;;;17.50;54.93;102379.13;5050570;28;8838;-69
2023/06/04 10:25:03;;;;;;;;;2.67;2.67;;;;;17.50;55.25;102388.16;5047089;28;9090;-69
2023/06/04 10:27:30;;;;;;;;;3.50;3.50;;;;;17.52;54.52;102393.38;5027936;28;8925;-69
2023/06/04 10:29:58;;;;;;;;;1.33;1.33;;;;;17.59;53.40;102383.38;5047767;28;8834;-69
2023/06/04 10:32:29;;;;;;;;;3.33;3.33;;;;;17.66;52.64;102389.69;5044983;28;8923;-68
2023/06/04 10:34:57;;;;;;;;;7.33;5.00;;;;;17.75;52.19;102393.94;5050869;28;8986;-69
2023/06/04 10:37:25;;;;;;;;;2.33;2.33;;;;;17.82;51.49;102387.66;5048961;28;9861;-68
2023/06/04 10:39:56;;;;;;;;;2.50;1.50;;;;;17.85;51.28;102388.09;5033360;28;9567;-67
2023/06/04 10:42:24;;;;;;;;;2.33;2.00;;;;;17.93;50.46;102384.34;5049203;28;8843;-67
2023/06/04 10:44:53;;;;;;;;;1.50;1.00;;;;;17.97;49.44;102389.19;5051504;28;8905;-67
2023/06/04 10:47:25;;;;;;;;;2.00;1.00;;;;;18.03;47.27;102385.66;5050824;28;8981;-67
2023/06/04 10:49:54;;;;;;;;;1.75;1.00;;;;;18.03;45.61;102395.72;5034679;28;8862;-66
2023/06/04 10:52:21;;;;;;;;;1.00;1.00;;;;;17.98;43.84;102385.41;5058376;28;8843;-67
2023/06/04 10:54:48;;;;;;;;;1.00;1.00;;;;;17.98;44.58;102384.56;5033267;28;8863;-67
2023/06/04 10:57:17;;;;;;;;;0.50;0.25;;;;;18.03;43.25;102379.34;5047934;28;8859;-67
2023/06/04 10:59:57;;;;;;;;;2.75;1.75;;;;;18.11;43.00;102392.78;5031823;28;9557;-66
2023/06/04 11:02:24;;;;;;;;;0.75;0.75;;;;;18.13;42.67;102393.41;5044761;28;8815;-67
2023/06/04 11:05:09;;;;;;;;;0.00;0.00;;;;;18.20;43.29;102388.81;5050267;28;8862;-68
2023/06/04 11:07:43;;;;;;;;;1.50;1.50;;;;;18.28;42.72;102396.78;5048608;28;8841;-67
2023/06/04 11:10:14;;;;;;;;;0.00;0.00;;;;;18.33;41.73;102393.44;5032991;28;8836;-66
2023/06/04 11:12:42;;;;;;;;;1.75;1.25;;;;;18.37;40.51;102381.06;5050887;28;8821;-67
2023/06/04 11:15:09;;;;;;;;;0.25;0.25;;;;;18.34;40.84;102392.38;5047485;28;8843;-67
2023/06/04 11:17:36;;;;;;;;;1.25;1.25;;;;;18.33;41.99;102376.25;5028457;28;8854;-67
2023/06/04 11:20:06;;;;;;;;;0.75;0.75;;;;;18.41;43.19;102382.34;5050721;28;8851;-69
2023/06/04 11:22:33;;;;;;;;;0.75;0.75;;;;;18.43;42.52;102384.84;5047520;28;8938;-68
2023/06/04 11:25:00;;;;;;;;;1.00;1.00;;;;;18.41;42.18;102378.78;5047339;28;9063;-68
2023/06/04 11:27:26;;;;;;;;;2.00;1.00;;;;;18.49;41.57;102378.56;5050263;28;8918;-68
2023/06/04 11:30:02;;;;;;;;;2.00;1.00;;;;;18.56;41.09;102379.41;5031955;28;8831;-68
2023/06/04 11:32:30;;;;;;;;;2.50;2.50;;;;;18.57;39.83;102386.53;5047938;28;8979;-69
2023/06/04 11:35:06;;;;;;;;;1.75;1.75;;;;;18.52;40.83;102364.53;5049430;28;8930;-68
2023/06/04 11:37:33;;;;;;;;;1.75;1.75;;;;;18.58;40.84;102371.84;5032476;28;8957;-68
2023/06/04 11:40:00;;;;;;;;;1.00;1.00;;;;;18.74;40.90;102370.59;5049490;28;8862;-69